Wetterdaten: Mittwoch, 07.07.2010
Datum Zeit Temp. A. Feuchte A. Luftdruck Regen Wind Richtung Richtung Sonnenschein UV Solar Windben
07.07.2010 00:00 14,6 C 74 % 1022,5 hPa 0,0 mm 0,0 km/h (0 Bft) W-NW 292 0 min 0 UV-I 0 W/m 1,6 km/h (1 Bft)
07.07.2010 00:10 14,2 C 75 % 1022,6 hPa 0,0 mm 0,0 km/h (0 Bft) N 0 0 min 0 UV-I 0 W/m 0,0 km/h (0 Bft)
07.07.2010 00:20 14,1 C 74 % 1022,5 hPa 0,0 mm 0,0 km/h (0 Bft) W-NW 287 0 min 0 UV-I 0 W/m 0,0 km/h (0 Bft)
07.07.2010 00:30 13,9 C 75 % 1022,6 hPa 0,0 mm 0,0 km/h (0 Bft) W-NW 288 0 min 0 UV-I 0 W/m 0,0 km/h (0 Bft)
07.07.2010 00:40 13,8 C 76 % 1022,4 hPa 0,0 mm 0,0 km/h (0 Bft) W-NW 288 0 min 0 UV-I 0 W/m 0,0 km/h (0 Bft)
07.07.2010 00:50 13,8 C 77 % 1022,4 hPa 0,0 mm 0,0 km/h (0 Bft) W-NW 288 0 min 0 UV-I 0 W/m 0,0 km/h (0 Bft)
07.07.2010 01:00 13,6 C 77 % 1022,5 hPa 0,0 mm 0,0 km/h (0 Bft) N 0 0 min 0 UV-I 0 W/m 0,0 km/h (0 Bft)
07.07.2010 01:10 13,3 C 79 % 1022,5 hPa 0,0 mm 0,0 km/h (0 Bft) N 0 0 min 0 UV-I 0 W/m 0,0 km/h (0 Bft)
07.07.2010 01:20 13,2 C 80 % 1022,6 hPa 0,0 mm 0,0 km/h (0 Bft) N 0 0 min 0 UV-I 0 W/m 0,0 km/h (0 Bft)
07.07.2010 01:30 13,2 C 80 % 1022,6 hPa 0,0 mm 0,0 km/h (0 Bft) N 0 0 min 0 UV-I 0 W/m 0,0 km/h (0 Bft)
07.07.2010 01:40 12,9 C 80 % 1022,7 hPa 0,0 mm 0,0 km/h (0 Bft) N 0 0 min 0 UV-I 0 W/m 0,0 km/h (0 Bft)
07.07.2010 01:50 12,7 C 81 % 1022,5 hPa 0,0 mm 0,0 km/h (0 Bft) N 0 0 min 0 UV-I 0 W/m 0,0 km/h (0 Bft)
07.07.2010 02:00 12,6 C 82 % 1022,5 hPa 0,0 mm 0,0 km/h (0 Bft) N 0 0 min 0 UV-I 0 W/m 0,0 km/h (0 Bft)
07.07.2010 02:10 12,4 C 82 % 1022,6 hPa 0,0 mm 0,0 km/h (0 Bft) N 0 0 min 0 UV-I 0 W/m 0,0 km/h (0 Bft)
07.07.2010 02:20 12,4 C 83 % 1022,6 hPa 0,0 mm 0,0 km/h (0 Bft) N 0 0 min 0 UV-I 0 W/m 0,0 km/h (0 Bft)
07.07.2010 02:30 12,3 C 83 % 1022,6 hPa 0,0 mm 0,0 km/h (0 Bft) N 0 0 min 0 UV-I 0 W/m 0,0 km/h (0 Bft)
07.07.2010 02:40 12,2 C 83 % 1022,5 hPa 0,0 mm 0,0 km/h (0 Bft) N 0 0 min 0 UV-I 0 W/m 0,0 km/h (0 Bft)
07.07.2010 02:50 12,0 C 84 % 1022,5 hPa 0,0 mm 0,0 km/h (0 Bft) N 0 0 min 0 UV-I 0 W/m 0,0 km/h (0 Bft)
07.07.2010 03:00 12,1 C 84 % 1022,4 hPa 0,0 mm 0,0 km/h (0 Bft) W-NW 292 0 min 0 UV-I 0 W/m 1,6 km/h (1 Bft)
07.07.2010 03:10 12,0 C 84 % 1022,5 hPa 0,0 mm 0,0 km/h (0 Bft) W-NW 292 0 min 0 UV-I 0 W/m 1,6 km/h (1 Bft)
07.07.2010 03:20 12,0 C 83 % 1022,3 hPa 0,0 mm 0,0 km/h (0 Bft) W-NW 292 0 min 0 UV-I 0 W/m 1,6 km/h (1 Bft)
07.07.2010 03:30 11,9 C 84 % 1022,2 hPa 0,0 mm 0,0 km/h (0 Bft) W-NW 292 0 min 0 UV-I 0 W/m 1,6 km/h (1 Bft)
07.07.2010 03:40 11,8 C 84 % 1022,2 hPa 0,0 mm 0,0 km/h (0 Bft) W-NW 292 0 min 0 UV-I 0 W/m 1,6 km/h (1 Bft)
07.07.2010 03:50 11,8 C 83 % 1022,1 hPa 0,0 mm 0,0 km/h (0 Bft) N 0 0 min 0 UV-I 0 W/m 0,0 km/h (0 Bft)
07.07.2010 04:00 11,7 C 84 % 1022,2 hPa 0,0 mm 0,0 km/h (0 Bft) W-SW 247 0 min 0 UV-I 0 W/m 1,6 km/h (1 Bft)
07.07.2010 04:10 11,5 C 84 % 1022,1 hPa 0,0 mm 0,0 km/h (0 Bft) W-SW 247 0 min 0 UV-I 0 W/m 1,6 km/h (1 Bft)
07.07.2010 04:20 11,4 C 84 % 1022,0 hPa 0,0 mm 0,0 km/h (0 Bft) S-SW 202 0 min 0 UV-I 0 W/m 1,6 km/h (1 Bft)
07.07.2010 04:30 11,3 C 84 % 1022,0 hPa 0,0 mm 0,0 km/h (0 Bft) S-SW 202 0 min 0 UV-I 0 W/m 1,6 km/h (1 Bft)
07.07.2010 04:40 11,3 C 85 % 1022,1 hPa 0,0 mm 0,0 km/h (0 Bft) S-SW 202 0 min 0 UV-I 0 W/m 3,2 km/h (1 Bft)
07.07.2010 04:50 11,2 C 85 % 1022,1 hPa 0,0 mm 0,0 km/h (0 Bft) S-SW 202 0 min 0 UV-I 0 W/m 1,6 km/h (1 Bft)
07.07.2010 05:00 11,1 C 85 % 1022,1 hPa 0,0 mm 0,0 km/h (0 Bft) S-SW 202 0 min 0 UV-I 0 W/m 1,6 km/h (1 Bft)
07.07.2010 05:10 11,0 C 85 % 1022,2 hPa 0,0 mm 0,0 km/h (0 Bft) S-SW 202 0 min 0 UV-I 0 W/m 1,6 km/h (1 Bft)
07.07.2010 05:20 11,0 C 85 % 1022,2 hPa 0,0 mm 0,0 km/h (0 Bft) S-SW 202 0 min 0 UV-I 0 W/m 1,6 km/h (1 Bft)
07.07.2010 05:30 10,9 C 85 % 1022,2 hPa 0,0 mm 0,0 km/h (0 Bft) N 0 0 min 0 UV-I 5 W/m 0,0 km/h (0 Bft)
07.07.2010 05:40 10,8 C 86 % 1022,2 hPa 0,0 mm 0,0 km/h (0 Bft) S-SW 202 0 min 0 UV-I 9 W/m 1,6 km/h (1 Bft)
07.07.2010 05:50 10,9 C 86 % 1022,2 hPa 0,0 mm 0,0 km/h (0 Bft) N 0 0 min 0 UV-I 12 W/m 0,0 km/h (0 Bft)
07.07.2010 06:00 10,9 C 86 % 1022,1 hPa 0,0 mm 0,0 km/h (0 Bft) S-SW 202 0 min 0 UV-I 16 W/m 1,6 km/h (1 Bft)
07.07.2010 06:10 11,0 C 86 % 1022,2 hPa 0,0 mm 0,0 km/h (0 Bft) S-SW 202 0 min 0 UV-I 19 W/m 1,6 km/h (1 Bft)
07.07.2010 06:20 11,2 C 85 % 1022,2 hPa 0,0 mm 0,0 km/h (0 Bft) S-SW 202 0 min 0 UV-I 28 W/m 1,6 km/h (1 Bft)
07.07.2010 06:30 11,4 C 85 % 1022,2 hPa 0,0 mm 0,0 km/h (0 Bft) S-SW 202 10 min 0 UV-I 86 W/m 1,6 km/h (1 Bft)
07.07.2010 06:40 11,8 C 84 % 1022,3 hPa 0,0 mm 0,0 km/h (0 Bft) S-SW 202 10 min 0 UV-I 104 W/m 1,6 km/h (1 Bft)
07.07.2010 06:50 12,1 C 83 % 1022,2 hPa 0,0 mm 0,0 km/h (0 Bft) S 180 10 min 1 UV-I 127 W/m 3,2 km/h (1 Bft)
07.07.2010 07:00 12,3 C 83 % 1022,4 hPa 0,0 mm 0,0 km/h (0 Bft) S 180 10 min 1 UV-I 148 W/m 1,6 km/h (1 Bft)
07.07.2010 07:10 12,6 C 82 % 1022,3 hPa 0,0 mm 0,0 km/h (0 Bft) S 180 10 min 1 UV-I 171 W/m 1,6 km/h (1 Bft)
07.07.2010 07:20 13,0 C 81 % 1022,2 hPa 0,0 mm 0,0 km/h (0 Bft) N 0 10 min 1 UV-I 197 W/m 0,0 km/h (0 Bft)
07.07.2010 07:30 13,4 C 79 % 1022,4 hPa 0,0 mm 0,0 km/h (0 Bft) N 0 10 min 1 UV-I 223 W/m 0,0 km/h (0 Bft)
07.07.2010 07:40 13,9 C 77 % 1022,4 hPa 0,0 mm 0,0 km/h (0 Bft) S 180 10 min 1 UV-I 246 W/m 1,6 km/h (1 Bft)
07.07.2010 07:50 14,2 C 75 % 1022,4 hPa 0,0 mm 0,0 km/h (0 Bft) SW 225 10 min 1 UV-I 276 W/m 1,6 km/h (1 Bft)
07.07.2010 08:00 14,4 C 75 % 1022,4 hPa 0,0 mm 0,0 km/h (0 Bft) W-SW 241 10 min 1 UV-I 301 W/m 0,0 km/h (0 Bft)
07.07.2010 08:10 14,5 C 75 % 1022,6 hPa 0,0 mm 1,6 km/h (1 Bft) W 270 10 min 1 UV-I 325 W/m 6,4 km/h (2 Bft)
07.07.2010 08:20 15,0 C 74 % 1022,4 hPa 0,0 mm 0,0 km/h (0 Bft) S 180 10 min 2 UV-I 352 W/m 4,8 km/h (1 Bft)
07.07.2010 08:30 15,2 C 72 % 1022,4 hPa 0,0 mm 0,0 km/h (0 Bft) SW 225 10 min 2 UV-I 383 W/m 4,8 km/h (1 Bft)
07.07.2010 08:40 15,6 C 71 % 1022,3 hPa 0,0 mm 0,0 km/h (0 Bft) W-SW 247 10 min 2 UV-I 411 W/m 3,2 km/h (1 Bft)
07.07.2010 08:50 16,0 C 70 % 1022,4 hPa 0,0 mm 1,6 km/h (1 Bft) W-NW 292 10 min 2 UV-I 439 W/m 4,8 km/h (1 Bft)
07.07.2010 09:00 16,1 C 70 % 1022,4 hPa 0,0 mm 1,6 km/h (1 Bft) W-NW 292 10 min 2 UV-I 462 W/m 8,0 km/h (2 Bft)
07.07.2010 09:10 16,6 C 70 % 1022,4 hPa 0,0 mm 0,0 km/h (0 Bft) W-NW 292 10 min 3 UV-I 490 W/m 3,2 km/h (1 Bft)
07.07.2010 09:20 16,9 C 70 % 1022,6 hPa 0,0 mm 1,6 km/h (1 Bft) W-SW 247 10 min 3 UV-I 515 W/m 6,4 km/h (2 Bft)
07.07.2010 09:30 17,0 C 68 % 1022,5 hPa 0,0 mm 1,6 km/h (1 Bft) W-SW 247 10 min 3 UV-I 541 W/m 6,4 km/h (2 Bft)
07.07.2010 09:40 17,6 C 67 % 1022,5 hPa 0,0 mm 0,0 km/h (0 Bft) W-SW 247 10 min 4 UV-I 566 W/m 1,6 km/h (1 Bft)
07.07.2010 09:50 17,9 C 66 % 1022,6 hPa 0,0 mm 0,0 km/h (0 Bft) W-SW 247 10 min 4 UV-I 589 W/m 4,8 km/h (1 Bft)
07.07.2010 10:00 18,3 C 67 % 1022,5 hPa 0,0 mm 0,0 km/h (0 Bft) W-SW 247 10 min 4 UV-I 613 W/m 4,8 km/h (1 Bft)
07.07.2010 10:10 18,5 C 65 % 1022,5 hPa 0,0 mm 1,6 km/h (1 Bft) W-NW 292 10 min 4 UV-I 638 W/m 6,4 km/h (2 Bft)
07.07.2010 10:20 18,6 C 63 % 1022,7 hPa 0,0 mm 3,2 km/h (1 Bft) W 270 10 min 5 UV-I 666 W/m 8,0 km/h (2 Bft)
07.07.2010 10:30 19,2 C 60 % 1022,6 hPa 0,0 mm 3,2 km/h (1 Bft) W-NW 292 10 min 5 UV-I 684 W/m 9,7 km/h (2 Bft)
07.07.2010 10:40 19,2 C 59 % 1022,7 hPa 0,0 mm 3,2 km/h (1 Bft) W-SW 247 10 min 5 UV-I 708 W/m 9,7 km/h (2 Bft)
07.07.2010 10:50 19,4 C 57 % 1022,7 hPa 0,0 mm 3,2 km/h (1 Bft) W-SW 247 10 min 6 UV-I 731 W/m 11,3 km/h (2 Bft)
07.07.2010 11:00 19,8 C 54 % 1022,6 hPa 0,0 mm 3,2 km/h (1 Bft) W-NW 292 10 min 6 UV-I 745 W/m 9,7 km/h (2 Bft)
07.07.2010 11:10 19,9 C 50 % 1022,6 hPa 0,0 mm 3,2 km/h (1 Bft) W-SW 247 10 min 6 UV-I 773 W/m 9,7 km/h (2 Bft)
07.07.2010 11:20 20,1 C 52 % 1022,6 hPa 0,0 mm 1,6 km/h (1 Bft) SW 225 10 min 7 UV-I 786 W/m 11,3 km/h (2 Bft)
07.07.2010 11:30 20,6 C 49 % 1022,4 hPa 0,0 mm 1,6 km/h (1 Bft) S-SW 202 10 min 7 UV-I 807 W/m 6,4 km/h (2 Bft)
07.07.2010 11:40 20,4 C 50 % 1022,6 hPa 0,0 mm 4,8 km/h (1 Bft) W-SW 247 10 min 7 UV-I 821 W/m 14,5 km/h (3 Bft)
07.07.2010 11:50 20,6 C 51 % 1022,6 hPa 0,0 mm 1,6 km/h (1 Bft) W 270 10 min 7 UV-I 831 W/m 6,4 km/h (2 Bft)
07.07.2010 12:00 21,1 C 51 % 1022,5 hPa 0,0 mm 3,2 km/h (1 Bft) W 270 10 min 7 UV-I 840 W/m 9,7 km/h (2 Bft)
07.07.2010 12:10 21,1 C 49 % 1022,4 hPa 0,0 mm 1,6 km/h (1 Bft) W 270 10 min 8 UV-I 849 W/m 8,0 km/h (2 Bft)
07.07.2010 12:20 21,0 C 48 % 1022,4 hPa 0,0 mm 1,6 km/h (1 Bft) W-NW 292 10 min 8 UV-I 872 W/m 8,0 km/h (2 Bft)
07.07.2010 12:30 21,9 C 46 % 1022,3 hPa 0,0 mm 3,2 km/h (1 Bft) W 270 10 min 8 UV-I 882 W/m 9,7 km/h (2 Bft)
07.07.2010 12:40 21,6 C 44 % 1022,3 hPa 0,0 mm 4,8 km/h (1 Bft) NW 315 10 min 8 UV-I 889 W/m 16,1 km/h (3 Bft)
07.07.2010 12:50 21,8 C 46 % 1022,4 hPa 0,0 mm 3,2 km/h (1 Bft) N-NW 337 10 min 8 UV-I 893 W/m 9,7 km/h (2 Bft)
07.07.2010 13:00 22,1 C 42 % 1022,3 hPa 0,0 mm 3,2 km/h (1 Bft) N-NO 22 10 min 8 UV-I 907 W/m 11,3 km/h (2 Bft)
07.07.2010 13:10 22,0 C 43 % 1022,3 hPa 0,0 mm 3,2 km/h (1 Bft) W-SW 247 10 min 8 UV-I 912 W/m 9,7 km/h (2 Bft)
07.07.2010 13:20 22,4 C 40 % 1022,3 hPa 0,0 mm 4,8 km/h (1 Bft) W 270 10 min 8 UV-I 916 W/m 11,3 km/h (2 Bft)
07.07.2010 13:30 22,6 C 39 % 1022,3 hPa 0,0 mm 1,6 km/h (1 Bft) W-SW 247 10 min 8 UV-I 921 W/m 6,4 km/h (2 Bft)
07.07.2010 13:40 23,6 C 39 % 1022,2 hPa 0,0 mm 1,6 km/h (1 Bft) W-SW 247 10 min 8 UV-I 926 W/m 8,0 km/h (2 Bft)
07.07.2010 13:50 23,4 C 41 % 1022,2 hPa 0,0 mm 3,2 km/h (1 Bft) W 270 10 min 8 UV-I 918 W/m 9,7 km/h (2 Bft)
07.07.2010 14:00 23,1 C 40 % 1022,1 hPa 0,0 mm 4,8 km/h (1 Bft) W 270 10 min 8 UV-I 918 W/m 14,5 km/h (3 Bft)
07.07.2010 14:10 23,6 C 38 % 1022,0 hPa 0,0 mm 3,2 km/h (1 Bft) W 270 10 min 8 UV-I 916 W/m 9,7 km/h (2 Bft)
07.07.2010 14:20 23,6 C 36 % 1021,9 hPa 0,0 mm 1,6 km/h (1 Bft) N-NO 22 10 min 8 UV-I 912 W/m 8,0 km/h (2 Bft)
07.07.2010 14:30 23,9 C 38 % 1021,7 hPa 0,0 mm 1,6 km/h (1 Bft) W 270 10 min 8 UV-I 909 W/m 8,0 km/h (2 Bft)
07.07.2010 14:40 23,7 C 38 % 1021,5 hPa 0,0 mm 0,0 km/h (0 Bft) N-NO 22 10 min 8 UV-I 900 W/m 6,4 km/h (2 Bft)
07.07.2010 14:50 24,0 C 38 % 1021,6 hPa 0,0 mm 3,2 km/h (1 Bft) W-NW 292 10 min 7 UV-I 891 W/m 8,0 km/h (2 Bft)
07.07.2010 15:00 23,8 C 39 % 1021,5 hPa 0,0 mm 2,0 km/h (1 Bft) N-NW 330 10 min 7 UV-I 881 W/m 6,4 km/h (2 Bft)
07.07.2010 15:10 24,6 C 41 % 1021,2 hPa 0,0 mm 2,8 km/h (1 Bft) W-NW 288 10 min 7 UV-I 869 W/m 11,3 km/h (2 Bft)
07.07.2010 15:20 24,7 C 39 % 1021,1 hPa 0,0 mm 5,0 km/h (1 Bft) W-SW 258 10 min 7 UV-I 857 W/m 9,7 km/h (2 Bft)
07.07.2010 15:30 25,8 C 39 % 1021,1 hPa 0,0 mm 3,1 km/h (1 Bft) S-SW 207 10 min 7 UV-I 839 W/m 9,7 km/h (2 Bft)
07.07.2010 15:40 25,9 C 37 % 1021,0 hPa 0,0 mm 1,1 km/h (1 Bft) W-NW 294 10 min 6 UV-I 834 W/m 8,0 km/h (2 Bft)
07.07.2010 15:50 25,3 C 38 % 1020,7 hPa 0,0 mm 2,9 km/h (1 Bft) W 268 10 min 6 UV-I 810 W/m 9,7 km/h (2 Bft)
07.07.2010 16:00 25,0 C 42 % 1020,6 hPa 0,0 mm 0,3 km/h (0 Bft) W 261 10 min 6 UV-I 788 W/m 1,6 km/h (1 Bft)
07.07.2010 16:10 26,1 C 38 % 1020,4 hPa 0,0 mm 1,6 km/h (1 Bft) W 270 10 min 5 UV-I 775 W/m 6,4 km/h (2 Bft)
07.07.2010 16:20 26,1 C 36 % 1020,5 hPa 0,0 mm 3,2 km/h (1 Bft) S 180 10 min 5 UV-I 765 W/m 8,0 km/h (2 Bft)
07.07.2010 16:30 26,8 C 39 % 1020,3 hPa 0,0 mm 0,0 km/h (0 Bft) SW 225 10 min 5 UV-I 742 W/m 4,8 km/h (1 Bft)
07.07.2010 16:40 25,3 C 39 % 1020,2 hPa 0,0 mm 4,8 km/h (1 Bft) W-NW 292 10 min 5 UV-I 715 W/m 11,3 km/h (2 Bft)
07.07.2010 16:50 25,7 C 41 % 1020,2 hPa 0,0 mm 1,6 km/h (1 Bft) W 270 10 min 4 UV-I 698 W/m 8,0 km/h (2 Bft)
07.07.2010 17:00 25,8 C 40 % 1020,1 hPa 0,0 mm 3,2 km/h (1 Bft) W-NW 292 10 min 4 UV-I 675 W/m 6,4 km/h (2 Bft)
07.07.2010 17:10 25,9 C 40 % 1020,1 hPa 0,0 mm 3,2 km/h (1 Bft) W 270 10 min 4 UV-I 649 W/m 8,0 km/h (2 Bft)
07.07.2010 17:20 26,3 C 38 % 1020,0 hPa 0,0 mm 1,6 km/h (1 Bft) N-NO 22 10 min 3 UV-I 626 W/m 8,0 km/h (2 Bft)
07.07.2010 17:30 25,9 C 41 % 1019,8 hPa 0,0 mm 1,6 km/h (1 Bft) N 360 10 min 3 UV-I 605 W/m 6,4 km/h (2 Bft)
07.07.2010 17:40 26,3 C 39 % 1019,9 hPa 0,0 mm 0,0 km/h (0 Bft) N-NO 22 10 min 3 UV-I 527 W/m 4,8 km/h (1 Bft)
07.07.2010 17:50 25,6 C 40 % 1019,9 hPa 0,0 mm 0,0 km/h (0 Bft) N 360 10 min 2 UV-I 466 W/m 6,4 km/h (2 Bft)
07.07.2010 18:00 25,6 C 42 % 1019,8 hPa 0,0 mm 0,0 km/h (0 Bft) W-NW 292 10 min 2 UV-I 554 W/m 3,2 km/h (1 Bft)
07.07.2010 18:10 26,3 C 40 % 1019,7 hPa 0,0 mm 1,6 km/h (1 Bft) W-NW 292 10 min 2 UV-I 571 W/m 3,2 km/h (1 Bft)
07.07.2010 18:20 26,2 C 40 % 1019,5 hPa 0,0 mm 0,0 km/h (0 Bft) NW 315 10 min 2 UV-I 531 W/m 4,8 km/h (1 Bft)
07.07.2010 18:30 25,8 C 40 % 1019,5 hPa 0,0 mm 1,6 km/h (1 Bft) W-NW 292 10 min 2 UV-I 473 W/m 6,4 km/h (2 Bft)
07.07.2010 18:40 25,8 C 41 % 1019,4 hPa 0,0 mm 3,2 km/h (1 Bft) W-NW 292 10 min 2 UV-I 445 W/m 8,0 km/h (2 Bft)
07.07.2010 18:50 25,7 C 41 % 1019,4 hPa 0,0 mm 1,6 km/h (1 Bft) NW 315 10 min 1 UV-I 388 W/m 6,4 km/h (2 Bft)
07.07.2010 19:00 25,7 C 43 % 1019,4 hPa 0,0 mm 1,6 km/h (1 Bft) N 360 10 min 1 UV-I 378 W/m 8,0 km/h (2 Bft)
07.07.2010 19:10 25,4 C 41 % 1019,3 hPa 0,0 mm 1,6 km/h (1 Bft) N 360 10 min 1 UV-I 378 W/m 4,8 km/h (1 Bft)
07.07.2010 19:20 25,6 C 42 % 1019,3 hPa 0,0 mm 1,6 km/h (1 Bft) NW 315 10 min 1 UV-I 348 W/m 4,8 km/h (1 Bft)
07.07.2010 19:30 25,4 C 44 % 1019,2 hPa 0,0 mm 0,0 km/h (0 Bft) NW 315 10 min 1 UV-I 315 W/m 1,6 km/h (1 Bft)
07.07.2010 19:40 25,9 C 41 % 1019,2 hPa 0,0 mm 0,0 km/h (0 Bft) N-NW 337 10 min 1 UV-I 276 W/m 3,2 km/h (1 Bft)
07.07.2010 19:50 25,6 C 41 % 1019,1 hPa 0,0 mm 0,0 km/h (0 Bft) N-NW 337 10 min 1 UV-I 239 W/m 3,2 km/h (1 Bft)
07.07.2010 20:00 25,3 C 44 % 1019,1 hPa 0,0 mm 0,0 km/h (0 Bft) N-NW 337 10 min 1 UV-I 202 W/m 1,6 km/h (1 Bft)
07.07.2010 20:10 25,3 C 43 % 1019,1 hPa 0,0 mm 0,0 km/h (0 Bft) N-NW 337 10 min 1 UV-I 174 W/m 1,6 km/h (1 Bft)
07.07.2010 20:20 24,8 C 46 % 1019,1 hPa 0,0 mm 0,0 km/h (0 Bft) N-NW 337 10 min 1 UV-I 151 W/m 1,6 km/h (1 Bft)
07.07.2010 20:30 24,4 C 49 % 1019,2 hPa 0,0 mm 0,0 km/h (0 Bft) N-NW 337 0 min 0 UV-I 32 W/m 1,6 km/h (1 Bft)
07.07.2010 20:40 23,8 C 49 % 1019,2 hPa 0,0 mm 0,0 km/h (0 Bft) N 0 0 min 0 UV-I 28 W/m 0,0 km/h (0 Bft)
07.07.2010 20:50 23,4 C 52 % 1019,2 hPa 0,0 mm 0,0 km/h (0 Bft) N-NW 337 0 min 0 UV-I 33 W/m 1,6 km/h (1 Bft)
07.07.2010 21:00 23,3 C 54 % 1019,2 hPa 0,0 mm 0,0 km/h (0 Bft) N 0 0 min 0 UV-I 32 W/m 0,0 km/h (0 Bft)
07.07.2010 21:10 22,8 C 57 % 1019,2 hPa 0,0 mm 0,0 km/h (0 Bft) N 0 0 min 0 UV-I 25 W/m 0,0 km/h (0 Bft)
07.07.2010 21:20 22,4 C 59 % 1019,3 hPa 0,0 mm 0,0 km/h (0 Bft) N-NW 337 0 min 0 UV-I 11 W/m 1,6 km/h (1 Bft)
07.07.2010 21:30 22,1 C 61 % 1019,3 hPa 0,0 mm 0,0 km/h (0 Bft) N 0 0 min 0 UV-I 5 W/m 0,0 km/h (0 Bft)
07.07.2010 21:40 21,6 C 61 % 1019,3 hPa 0,0 mm 0,0 km/h (0 Bft) N 0 0 min 0 UV-I 0 W/m 0,0 km/h (0 Bft)
07.07.2010 21:50 21,3 C 59 % 1019,5 hPa 0,0 mm 0,0 km/h (0 Bft) N 0 0 min 0 UV-I 0 W/m 0,0 km/h (0 Bft)
07.07.2010 22:00 21,1 C 59 % 1019,6 hPa 0,0 mm 0,0 km/h (0 Bft) N 0 0 min 0 UV-I 0 W/m 0,0 km/h (0 Bft)
07.07.2010 22:10 20,8 C 61 % 1019,6 hPa 0,0 mm 0,0 km/h (0 Bft) N 0 0 min 0 UV-I 0 W/m 0,0 km/h (0 Bft)
07.07.2010 22:20 20,7 C 59 % 1019,7 hPa 0,0 mm 0,0 km/h (0 Bft) N 0 0 min 0 UV-I 0 W/m 0,0 km/h (0 Bft)
07.07.2010 22:30 20,7 C 59 % 1019,7 hPa 0,0 mm 0,0 km/h (0 Bft) N 0 0 min 0 UV-I 0 W/m 0,0 km/h (0 Bft)
07.07.2010 22:40 20,4 C 60 % 1019,7 hPa 0,0 mm 0,0 km/h (0 Bft) N 0 0 min 0 UV-I 0 W/m 0,0 km/h (0 Bft)
07.07.2010 22:50 19,9 C 61 % 1019,6 hPa 0,0 mm 0,0 km/h (0 Bft) N-NW 337 0 min 0 UV-I 0 W/m 1,6 km/h (1 Bft)
07.07.2010 23:00 19,8 C 63 % 1019,7 hPa 0,0 mm 0,0 km/h (0 Bft) N-NW 337 0 min 0 UV-I 0 W/m 1,6 km/h (1 Bft)
07.07.2010 23:10 19,8 C 63 % 1019,8 hPa 0,0 mm 0,0 km/h (0 Bft) N 0 0 min 0 UV-I 0 W/m 0,0 km/h (0 Bft)
07.07.2010 23:20 19,8 C 62 % 1019,8 hPa 0,0 mm 0,0 km/h (0 Bft) N 0 0 min 0 UV-I 0 W/m 0,0 km/h (0 Bft)
07.07.2010 23:30 19,8 C 62 % 1019,9 hPa 0,0 mm 0,0 km/h (0 Bft) N 0 0 min 0 UV-I 0 W/m 0,0 km/h (0 Bft)
07.07.2010 23:40 19,9 C 64 % 1019,8 hPa 0,0 mm 0,0 km/h (0 Bft) N 0 0 min 0 UV-I 0 W/m 0,0 km/h (0 Bft)
07.07.2010 23:50 19,8 C 65 % 1019,8 hPa 0,0 mm 0,0 km/h (0 Bft) N 0 0 min 0 UV-I 0 W/m 0,0 km/h (0 Bft)
_ Min-Zeit 05:40 14:20 19:50 - 00:00 - - - - - 00:10
Minimum _ 10,8 C 36 % 1019,1 hPa - 0,0 km/h (0 Bft) - - - - - 0,0 km/h (0 Bft)
_ Max-Zeit 16:30 05:40 01:40 00:00 15:20 - - 06:30 12:10 13:40 12:40
Maximum _ 26,8 C 86 % 1022,7 hPa 0,0 mm 5,0 km/h
W-SW (1 Bft)
- - 10 min 8 UV-I 926 W/m 16,1 km/h
W-SW (3 Bft)
Durchschnitt _ 18,9 C 61 % 1021,4 hPa #0,0 mm 1,0 km/h (0 Bft) W - #14:00 h 4 UV-I 523 W/m 4,1 km/h (1 Bft)